sensor_id;sensor_type;location;lat;lon;timestamp;temperature;humidity
47434;SHT31;33184;48.774;8.918;2023-04-28T00:01:42;10.89;71.73
47434;SHT31;33184;48.774;8.918;2023-04-28T00:07:02;10.90;71.91
47434;SHT31;33184;48.774;8.918;2023-04-28T00:12:23;11.00;71.72
47434;SHT31;33184;48.774;8.918;2023-04-28T00:17:44;10.89;72.18
47434;SHT31;33184;48.774;8.918;2023-04-28T00:23:04;10.84;73.22
47434;SHT31;33184;48.774;8.918;2023-04-28T00:28:25;10.84;72.14
47434;SHT31;33184;48.774;8.918;2023-04-28T00:33:46;10.89;71.83
47434;SHT31;33184;48.774;8.918;2023-04-28T00:39:08;10.93;71.12
47434;SHT31;33184;48.774;8.918;2023-04-28T00:44:29;10.94;71.05
47434;SHT31;33184;48.774;8.918;2023-04-28T00:49:49;11.00;71.43
47434;SHT31;33184;48.774;8.918;2023-04-28T00:55:14;11.07;70.91
47434;SHT31;33184;48.774;8.918;2023-04-28T01:00:34;11.13;71.32
47434;SHT31;33184;48.774;8.918;2023-04-28T01:05:55;11.14;72.71
47434;SHT31;33184;48.774;8.918;2023-04-28T01:11:16;11.13;73.48
47434;SHT31;33184;48.774;8.918;2023-04-28T01:16:52;11.04;74.06
47434;SHT31;33184;48.774;8.918;2023-04-28T01:22:13;11.01;73.93
47434;SHT31;33184;48.774;8.918;2023-04-28T01:27:37;11.00;73.80
47434;SHT31;33184;48.774;8.918;2023-04-28T01:32:57;11.08;74.09
47434;SHT31;33184;48.774;8.918;2023-04-28T01:38:19;11.04;74.16
47434;SHT31;33184;48.774;8.918;2023-04-28T01:43:39;11.00;74.11
47434;SHT31;33184;48.774;8.918;2023-04-28T01:49:00;11.01;73.84
47434;SHT31;33184;48.774;8.918;2023-04-28T02:00:19;11.13;73.59
47434;SHT31;33184;48.774;8.918;2023-04-28T02:05:43;11.14;73.34
47434;SHT31;33184;48.774;8.918;2023-04-28T02:11:04;11.14;73.24
47434;SHT31;33184;48.774;8.918;2023-04-28T02:16:26;11.11;73.03
47434;SHT31;33184;48.774;8.918;2023-04-28T02:21:46;11.06;72.81
47434;SHT31;33184;48.774;8.918;2023-04-28T02:27:07;11.04;73.00
47434;SHT31;33184;48.774;8.918;2023-04-28T02:32:28;11.11;72.59
47434;SHT31;33184;48.774;8.918;2023-04-28T02:37:48;11.23;72.29
47434;SHT31;33184;48.774;8.918;2023-04-28T02:43:09;11.25;72.53
47434;SHT31;33184;48.774;8.918;2023-04-28T02:48:29;11.27;73.11
47434;SHT31;33184;48.774;8.918;2023-04-28T02:53:50;11.27;73.11
47434;SHT31;33184;48.774;8.918;2023-04-28T02:59:11;11.35;73.18
47434;SHT31;33184;48.774;8.918;2023-04-28T03:04:32;11.41;72.96
47434;SHT31;33184;48.774;8.918;2023-04-28T03:09:52;11.38;74.79
47434;SHT31;33184;48.774;8.918;2023-04-28T03:15:13;11.30;75.59
47434;SHT31;33184;48.774;8.918;2023-04-28T03:20:33;11.24;75.66
47434;SHT31;33184;48.774;8.918;2023-04-28T03:25:54;11.21;75.44
47434;SHT31;33184;48.774;8.918;2023-04-28T03:31:14;11.17;75.75
47434;SHT31;33184;48.774;8.918;2023-04-28T03:36:35;11.21;75.46
47434;SHT31;33184;48.774;8.918;2023-04-28T03:42:03;11.31;74.95
47434;SHT31;33184;48.774;8.918;2023-04-28T03:47:42;11.38;74.47
47434;SHT31;33184;48.774;8.918;2023-04-28T03:53:03;11.41;74.71
47434;SHT31;33184;48.774;8.918;2023-04-28T03:58:24;11.50;74.00
47434;SHT31;33184;48.774;8.918;2023-04-28T04:03:45;11.55;73.59
47434;SHT31;33184;48.774;8.918;2023-04-28T04:09:06;11.58;73.59
47434;SHT31;33184;48.774;8.918;2023-04-28T04:14:26;11.61;73.69
47434;SHT31;33184;48.774;8.918;2023-04-28T04:19:48;11.68;73.66
47434;SHT31;33184;48.774;8.918;2023-04-28T04:25:08;11.57;73.90
47434;SHT31;33184;48.774;8.918;2023-04-28T04:30:29;11.50;74.60
47434;SHT31;33184;48.774;8.918;2023-04-28T04:35:52;11.44;74.60
47434;SHT31;33184;48.774;8.918;2023-04-28T04:41:12;11.48;74.70
47434;SHT31;33184;48.774;8.918;2023-04-28T04:46:33;11.59;74.81
47434;SHT31;33184;48.774;8.918;2023-04-28T04:51:54;11.58;75.55
47434;SHT31;33184;48.774;8.918;2023-04-28T04:57:15;11.55;76.26
47434;SHT31;33184;48.774;8.918;2023-04-28T05:02:56;11.48;77.08
47434;SHT31;33184;48.774;8.918;2023-04-28T05:08:17;11.47;77.66
47434;SHT31;33184;48.774;8.918;2023-04-28T05:13:38;11.45;78.30
47434;SHT31;33184;48.774;8.918;2023-04-28T05:19:00;11.44;79.10
47434;SHT31;33184;48.774;8.918;2023-04-28T05:24:21;11.43;79.42
47434;SHT31;33184;48.774;8.918;2023-04-28T05:29:45;11.43;79.47
47434;SHT31;33184;48.774;8.918;2023-04-28T05:35:06;11.41;79.99
47434;SHT31;33184;48.774;8.918;2023-04-28T05:40:26;11.45;80.15
47434;SHT31;33184;48.774;8.918;2023-04-28T05:45:49;11.50;80.62
47434;SHT31;33184;48.774;8.918;2023-04-28T05:51:10;11.50;80.76
47434;SHT31;33184;48.774;8.918;2023-04-28T05:56:31;11.55;81.16
47434;SHT31;33184;48.774;8.918;2023-04-28T06:01:53;11.54;81.90
47434;SHT31;33184;48.774;8.918;2023-04-28T06:07:13;11.55;82.57
47434;SHT31;33184;48.774;8.918;2023-04-28T06:12:34;11.52;83.79
47434;SHT31;33184;48.774;8.918;2023-04-28T06:17:56;11.59;84.15
47434;SHT31;33184;48.774;8.918;2023-04-28T06:23:18;11.61;84.65
47434;SHT31;33184;48.774;8.918;2023-04-28T06:28:40;11.67;84.79
47434;SHT31;33184;48.774;8.918;2023-04-28T06:34:01;11.71;85.25
47434;SHT31;33184;48.774;8.918;2023-04-28T06:39:22;11.72;85.53
47434;SHT31;33184;48.774;8.918;2023-04-28T06:44:43;11.74;85.61
47434;SHT31;33184;48.774;8.918;2023-04-28T06:50:04;11.78;85.59
47434;SHT31;33184;48.774;8.918;2023-04-28T06:55:29;11.83;85.66
47434;SHT31;33184;48.774;8.918;2023-04-28T07:00:52;11.86;85.99
47434;SHT31;33184;48.774;8.918;2023-04-28T07:06:12;11.92;86.32
47434;SHT31;33184;48.774;8.918;2023-04-28T07:11:33;11.93;86.54
47434;SHT31;33184;48.774;8.918;2023-04-28T07:16:53;11.96;86.63
47434;SHT31;33184;48.774;8.918;2023-04-28T07:22:14;12.03;86.39
47434;SHT31;33184;48.774;8.918;2023-04-28T07:27:34;12.08;86.30
47434;SHT31;33184;48.774;8.918;2023-04-28T07:32:56;12.10;86.40
47434;SHT31;33184;48.774;8.918;2023-04-28T07:38:17;12.12;86.57
47434;SHT31;33184;48.774;8.918;2023-04-28T07:43:39;12.12;86.92
47434;SHT31;33184;48.774;8.918;2023-04-28T07:49:00;12.15;87.87
47434;SHT31;33184;48.774;8.918;2023-04-28T07:54:21;12.15;88.31
47434;SHT31;33184;48.774;8.918;2023-04-28T07:59:42;12.18;89.01
47434;SHT31;33184;48.774;8.918;2023-04-28T08:05:02;12.19;89.56
47434;SHT31;33184;48.774;8.918;2023-04-28T08:10:23;12.20;90.11
47434;SHT31;33184;48.774;8.918;2023-04-28T08:15:47;12.25;90.64
47434;SHT31;33184;48.774;8.918;2023-04-28T08:21:07;12.25;91.16
47434;SHT31;33184;48.774;8.918;2023-04-28T08:26:29;12.30;91.44
47434;SHT31;33184;48.774;8.918;2023-04-28T08:31:50;12.39;91.92
47434;SHT31;33184;48.774;8.918;2023-04-28T08:37:11;12.44;91.88
47434;SHT31;33184;48.774;8.918;2023-04-28T08:42:33;12.50;91.71
47434;SHT31;33184;48.774;8.918;2023-04-28T08:47:55;12.53;91.63
47434;SHT31;33184;48.774;8.918;2023-04-28T08:53:24;12.64;91.75
47434;SHT31;33184;48.774;8.918;2023-04-28T08:58:45;12.70;91.99
47434;SHT31;33184;48.774;8.918;2023-04-28T09:04:05;12.70;91.79
47434;SHT31;33184;48.774;8.918;2023-04-28T09:09:27;12.75;92.11
47434;SHT31;33184;48.774;8.918;2023-04-28T09:14:57;12.81;92.71
47434;SHT31;33184;48.774;8.918;2023-04-28T09:20:24;12.93;93.51
47434;SHT31;33184;48.774;8.918;2023-04-28T09:31:23;13.48;92.98
47434;SHT31;33184;48.774;8.918;2023-04-28T09:36:44;13.86;92.11
47434;SHT31;33184;48.774;8.918;2023-04-28T09:42:05;14.21;91.21
47434;SHT31;33184;48.774;8.918;2023-04-28T09:47:25;14.45;89.69
47434;SHT31;33184;48.774;8.918;2023-04-28T09:52:56;14.71;89.45
47434;SHT31;33184;48.774;8.918;2023-04-28T09:58:19;14.78;89.19
47434;SHT31;33184;48.774;8.918;2023-04-28T10:03:40;15.00;89.28
47434;SHT31;33184;48.774;8.918;2023-04-28T10:09:01;15.36;88.80
47434;SHT31;33184;48.774;8.918;2023-04-28T10:14:22;15.39;86.90
47434;SHT31;33184;48.774;8.918;2023-04-28T10:19:44;15.36;85.94
47434;SHT31;33184;48.774;8.918;2023-04-28T10:30:32;15.46;86.37
47434;SHT31;33184;48.774;8.918;2023-04-28T10:35:53;15.60;86.15
47434;SHT31;33184;48.774;8.918;2023-04-28T10:41:32;15.74;85.47
47434;SHT31;33184;48.774;8.918;2023-04-28T10:47:02;15.82;83.86
47434;SHT31;33184;48.774;8.918;2023-04-28T11:14:40;16.11;80.91
47434;SHT31;33184;48.774;8.918;2023-04-28T11:20:01;16.45;79.22
47434;SHT31;33184;48.774;8.918;2023-04-28T11:25:22;16.57;78.69
47434;SHT31;33184;48.774;8.918;2023-04-28T11:30:42;16.73;77.69
47434;SHT31;33184;48.774;8.918;2023-04-28T11:36:04;16.69;76.99
47434;SHT31;33184;48.774;8.918;2023-04-28T11:41:25;16.70;76.39
47434;SHT31;33184;48.774;8.918;2023-04-28T11:46:53;16.89;76.64
47434;SHT31;33184;48.774;8.918;2023-04-28T11:52:15;16.77;76.06
47434;SHT31;33184;48.774;8.918;2023-04-28T11:57:36;16.87;75.86
47434;SHT31;33184;48.774;8.918;2023-04-28T12:02:56;17.16;74.75
47434;SHT31;33184;48.774;8.918;2023-04-28T12:08:29;17.27;73.34
47434;SHT31;33184;48.774;8.918;2023-04-28T12:14:06;17.51;72.78
47434;SHT31;33184;48.774;8.918;2023-04-28T12:19:27;17.59;72.36
47434;SHT31;33184;48.774;8.918;2023-04-28T12:25:04;17.58;70.95
47434;SHT31;33184;48.774;8.918;2023-04-28T12:30:27;17.45;71.90
47434;SHT31;33184;48.774;8.918;2023-04-28T12:35:48;17.44;70.82
47434;SHT31;33184;48.774;8.918;2023-04-28T12:41:09;17.55;70.32
47434;SHT31;33184;48.774;8.918;2023-04-28T12:46:29;17.44;71.02
47434;SHT31;33184;48.774;8.918;2023-04-28T12:51:50;17.42;71.49
47434;SHT31;33184;48.774;8.918;2023-04-28T12:57:11;17.54;71.57
47434;SHT31;33184;48.774;8.918;2023-04-28T13:02:32;18.02;70.33
47434;SHT31;33184;48.774;8.918;2023-04-28T13:07:53;18.59;69.36
47434;SHT31;33184;48.774;8.918;2023-04-28T13:13:14;18.65;65.91
47434;SHT31;33184;48.774;8.918;2023-04-28T13:18:34;18.75;66.40
47434;SHT31;33184;48.774;8.918;2023-04-28T13:23:55;18.59;66.09
47434;SHT31;33184;48.774;8.918;2023-04-28T13:29:16;18.24;67.75
47434;SHT31;33184;48.774;8.918;2023-04-28T13:34:37;17.92;67.73
47434;SHT31;33184;48.774;8.918;2023-04-28T13:39:58;17.69;70.67
47434;SHT31;33184;48.774;8.918;2023-04-28T13:45:19;17.55;71.84
47434;SHT31;33184;48.774;8.918;2023-04-28T13:50:39;17.38;72.78
47434;SHT31;33184;48.774;8.918;2023-04-28T13:56:00;17.32;73.19
47434;SHT31;33184;48.774;8.918;2023-04-28T14:01:21;17.21;73.64
47434;SHT31;33184;48.774;8.918;2023-04-28T14:06:41;17.00;75.37
47434;SHT31;33184;48.774;8.918;2023-04-28T14:12:02;16.69;77.54
47434;SHT31;33184;48.774;8.918;2023-04-28T14:17:22;16.57;77.79
47434;SHT31;33184;48.774;8.918;2023-04-28T14:22:43;16.49;79.42
47434;SHT31;33184;48.774;8.918;2023-04-28T14:28:03;16.31;81.52
47434;SHT31;33184;48.774;8.918;2023-04-28T14:33:24;16.35;81.68
47434;SHT31;33184;48.774;8.918;2023-04-28T14:38:44;16.46;81.67
47434;SHT31;33184;48.774;8.918;2023-04-28T14:44:06;16.29;82.61
47434;SHT31;33184;48.774;8.918;2023-04-28T14:49:27;16.22;82.57
47434;SHT31;33184;48.774;8.918;2023-04-28T14:54:48;16.25;82.34
47434;SHT31;33184;48.774;8.918;2023-04-28T15:00:09;16.21;82.91
47434;SHT31;33184;48.774;8.918;2023-04-28T15:05:30;16.29;82.69
47434;SHT31;33184;48.774;8.918;2023-04-28T15:10:50;16.24;82.64
47434;SHT31;33184;48.774;8.918;2023-04-28T15:16:11;16.17;83.47
47434;SHT31;33184;48.774;8.918;2023-04-28T15:21:32;16.02;84.14
47434;SHT31;33184;48.774;8.918;2023-04-28T15:26:52;15.57;85.46
47434;SHT31;33184;48.774;8.918;2023-04-28T15:32:13;15.44;86.44
47434;SHT31;33184;48.774;8.918;2023-04-28T15:37:40;15.58;87.21
47434;SHT31;33184;48.774;8.918;2023-04-28T15:43:03;15.71;86.64
47434;SHT31;33184;48.774;8.918;2023-04-28T15:48:23;15.68;85.60
47434;SHT31;33184;48.774;8.918;2023-04-28T15:53:44;15.61;85.57
47434;SHT31;33184;48.774;8.918;2023-04-28T15:59:04;15.53;85.66
47434;SHT31;33184;48.774;8.918;2023-04-28T16:04:25;15.35;86.52
47434;SHT31;33184;48.774;8.918;2023-04-28T16:09:45;15.22;86.87
47434;SHT31;33184;48.774;8.918;2023-04-28T16:15:08;15.20;87.39
47434;SHT31;33184;48.774;8.918;2023-04-28T16:20:29;15.30;87.66
47434;SHT31;33184;48.774;8.918;2023-04-28T16:25:49;15.42;87.35
47434;SHT31;33184;48.774;8.918;2023-04-28T16:31:11;15.40;87.33
47434;SHT31;33184;48.774;8.918;2023-04-28T16:36:31;15.26;87.59
47434;SHT31;33184;48.774;8.918;2023-04-28T16:41:52;15.24;88.16
47434;SHT31;33184;48.774;8.918;2023-04-28T16:47:13;15.19;88.69
47434;SHT31;33184;48.774;8.918;2023-04-28T16:52:34;15.19;88.81
47434;SHT31;33184;48.774;8.918;2023-04-28T16:57:54;15.20;89.27
47434;SHT31;33184;48.774;8.918;2023-04-28T17:03:15;15.22;89.31
47434;SHT31;33184;48.774;8.918;2023-04-28T17:08:36;15.27;89.41
47434;SHT31;33184;48.774;8.918;2023-04-28T17:13:58;15.35;89.44
47434;SHT31;33184;48.774;8.918;2023-04-28T17:19:19;15.54;89.54
47434;SHT31;33184;48.774;8.918;2023-04-28T17:24:39;15.60;89.17
47434;SHT31;33184;48.774;8.918;2023-04-28T17:30:00;15.57;89.05
47434;SHT31;33184;48.774;8.918;2023-04-28T17:35:21;15.57;88.87
47434;SHT31;33184;48.774;8.918;2023-04-28T17:40:41;15.51;88.68
47434;SHT31;33184;48.774;8.918;2023-04-28T17:46:07;15.54;88.53
47434;SHT31;33184;48.774;8.918;2023-04-28T17:51:28;15.50;88.34
47434;SHT31;33184;48.774;8.918;2023-04-28T17:56:49;15.46;88.25
47434;SHT31;33184;48.774;8.918;2023-04-28T18:02:11;15.37;88.12
47434;SHT31;33184;48.774;8.918;2023-04-28T18:07:32;15.30;88.15
47434;SHT31;33184;48.774;8.918;2023-04-28T18:12:52;15.23;88.37
47434;SHT31;33184;48.774;8.918;2023-04-28T18:18:13;15.10;88.43
47434;SHT31;33184;48.774;8.918;2023-04-28T18:23:34;15.07;88.50
47434;SHT31;33184;48.774;8.918;2023-04-28T18:28:54;14.96;88.60
47434;SHT31;33184;48.774;8.918;2023-04-28T18:34:15;14.93;88.28
47434;SHT31;33184;48.774;8.918;2023-04-28T18:39:36;14.85;87.95
47434;SHT31;33184;48.774;8.918;2023-04-28T18:44:58;14.78;87.96
47434;SHT31;33184;48.774;8.918;2023-04-28T18:50:18;14.69;88.12
47434;SHT31;33184;48.774;8.918;2023-04-28T18:55:39;14.61;88.05
47434;SHT31;33184;48.774;8.918;2023-04-28T19:00:59;14.58;88.09
47434;SHT31;33184;48.774;8.918;2023-04-28T19:06:20;14.51;87.98
47434;SHT31;33184;48.774;8.918;2023-04-28T19:11:41;14.45;88.11
47434;SHT31;33184;48.774;8.918;2023-04-28T19:17:01;14.31;88.13
47434;SHT31;33184;48.774;8.918;2023-04-28T19:27:52;14.14;88.60
47434;SHT31;33184;48.774;8.918;2023-04-28T19:33:13;14.06;88.64
47434;SHT31;33184;48.774;8.918;2023-04-28T19:38:33;13.90;88.76
47434;SHT31;33184;48.774;8.918;2023-04-28T19:43:54;13.67;88.78
47434;SHT31;33184;48.774;8.918;2023-04-28T19:49:15;13.59;89.08
47434;SHT31;33184;48.774;8.918;2023-04-28T19:54:36;13.55;89.28
47434;SHT31;33184;48.774;8.918;2023-04-28T19:59:57;13.45;89.33
47434;SHT31;33184;48.774;8.918;2023-04-28T20:05:18;13.40;89.71
47434;SHT31;33184;48.774;8.918;2023-04-28T20:10:39;13.35;89.91
47434;SHT31;33184;48.774;8.918;2023-04-28T20:16:00;13.35;90.02
47434;SHT31;33184;48.774;8.918;2023-04-28T20:21:21;13.31;90.21
47434;SHT31;33184;48.774;8.918;2023-04-28T20:26:43;13.29;90.28
47434;SHT31;33184;48.774;8.918;2023-04-28T20:32:04;13.34;90.65
47434;SHT31;33184;48.774;8.918;2023-04-28T20:37:24;13.39;90.64
47434;SHT31;33184;48.774;8.918;2023-04-28T20:42:45;13.43;90.65
47434;SHT31;33184;48.774;8.918;2023-04-28T20:48:06;13.45;90.49
47434;SHT31;33184;48.774;8.918;2023-04-28T20:53:27;13.46;90.46
47434;SHT31;33184;48.774;8.918;2023-04-28T20:58:47;13.43;90.56
47434;SHT31;33184;48.774;8.918;2023-04-28T21:04:08;13.48;90.78
47434;SHT31;33184;48.774;8.918;2023-04-28T21:09:29;13.49;90.41
47434;SHT31;33184;48.774;8.918;2023-04-28T21:14:49;13.45;90.24
47434;SHT31;33184;48.774;8.918;2023-04-28T21:20:11;13.36;90.21
47434;SHT31;33184;48.774;8.918;2023-04-28T21:25:32;13.28;90.21
47434;SHT31;33184;48.774;8.918;2023-04-28T21:30:53;13.25;90.32
47434;SHT31;33184;48.774;8.918;2023-04-28T21:36:13;13.25;90.47
47434;SHT31;33184;48.774;8.918;2023-04-28T21:41:34;13.28;90.61
47434;SHT31;33184;48.774;8.918;2023-04-28T21:46:54;13.16;90.48
47434;SHT31;33184;48.774;8.918;2023-04-28T21:52:15;13.05;90.47
47434;SHT31;33184;48.774;8.918;2023-04-28T21:57:36;13.00;90.66
47434;SHT31;33184;48.774;8.918;2023-04-28T22:02:56;12.98;90.88
47434;SHT31;33184;48.774;8.918;2023-04-28T22:08:17;13.00;90.99
47434;SHT31;33184;48.774;8.918;2023-04-28T22:13:38;12.97;90.96
47434;SHT31;33184;48.774;8.918;2023-04-28T22:18:59;12.95;91.05
47434;SHT31;33184;48.774;8.918;2023-04-28T22:24:19;12.87;90.99
47434;SHT31;33184;48.774;8.918;2023-04-28T22:29:40;12.81;91.03
47434;SHT31;33184;48.774;8.918;2023-04-28T22:35:01;12.75;91.15
47434;SHT31;33184;48.774;8.918;2023-04-28T22:40:21;12.77;91.43
47434;SHT31;33184;48.774;8.918;2023-04-28T22:45:42;12.75;91.41
47434;SHT31;33184;48.774;8.918;2023-04-28T22:51:05;12.71;91.44
47434;SHT31;33184;48.774;8.918;2023-04-28T22:56:26;12.59;91.13
47434;SHT31;33184;48.774;8.918;2023-04-28T23:01:47;12.44;91.07
47434;SHT31;33184;48.774;8.918;2023-04-28T23:07:08;12.29;90.93
47434;SHT31;33184;48.774;8.918;2023-04-28T23:12:28;12.16;91.06
47434;SHT31;33184;48.774;8.918;2023-04-28T23:17:49;12.20;91.48
47434;SHT31;33184;48.774;8.918;2023-04-28T23:23:09;12.29;91.63
47434;SHT31;33184;48.774;8.918;2023-04-28T23:28:30;12.13;91.25
47434;SHT31;33184;48.774;8.918;2023-04-28T23:33:51;12.00;91.23
47434;SHT31;33184;48.774;8.918;2023-04-28T23:39:12;11.88;91.08
47434;SHT31;33184;48.774;8.918;2023-04-28T23:44:32;11.74;91.13
47434;SHT31;33184;48.774;8.918;2023-04-28T23:49:53;11.64;91.13
47434;SHT31;33184;48.774;8.918;2023-04-28T23:55:14;11.55;91.27
